Time;durP1;ratioP1;P1;durP2;ratioP2;P2;SDS_P1;SDS_P2;PMS_P1;PMS_P2;Temp;Humidity;BMP_temperature;BMP_pressure;BME280_temperature;BME280_humidity;BME280_pressure;Samples;Min_cycle;Max_cycle;Signal;HPM_P1;HPM_P2
2022/03/07 00:00:31;;;;;;;67.87;64.63;;;1.30;99.90;;;;;;4304260;33;20153;-61
2022/03/07 00:03:01;;;;;;;67.23;64.03;;;1.30;99.90;;;;;;4330269;33;20244;-60
2022/03/07 00:05:37;;;;;;;70.23;66.83;;;1.30;99.90;;;;;;4338410;33;20176;-60
2022/03/07 00:08:06;;;;;;;70.77;67.37;;;1.20;99.90;;;;;;4360655;32;20153;-60
2022/03/07 00:10:33;;;;;;;77.37;73.33;;;1.20;99.90;;;;;;4360960;32;20180;-60
2022/03/07 00:13:05;;;;;;;78.17;74.47;;;1.20;99.90;;;;;;4375377;32;20523;-60
2022/03/07 00:15:44;;;;;;;79.57;75.83;;;1.20;99.90;;;;;;4373360;32;20164;-60
2022/03/07 00:18:17;;;;;;;82.77;78.93;;;1.20;99.90;;;;;;4374555;32;20573;-59
2022/03/07 00:20:51;;;;;;;85.30;81.13;;;1.10;99.90;;;;;;4373563;32;20203;-60
2022/03/07 00:23:20;;;;;;;80.13;76.30;;;1.10;99.90;;;;;;4373859;32;20199;-60
2022/03/07 00:25:56;;;;;;;80.70;76.87;;;1.20;99.90;;;;;;4373865;32;20426;-60
2022/03/07 00:28:23;;;;;;;78.23;74.47;;;1.10;99.90;;;;;;4368352;32;20274;-60
2022/03/07 00:30:55;;;;;;;81.17;77.37;;;1.10;99.90;;;;;;4368771;32;20220;-60
2022/03/07 00:33:34;;;;;;;84.40;80.20;;;1.00;99.90;;;;;;4430494;32;20588;-60
2022/03/07 00:36:10;;;;;;;85.60;81.57;;;1.00;99.90;;;;;;4422714;32;20170;-60
2022/03/07 00:38:44;;;;;;;86.87;83.00;;;0.90;99.90;;;;;;4420937;32;20157;-60
2022/03/07 00:41:24;;;;;;;86.80;82.60;;;1.00;99.90;;;;;;4425055;32;20199;-60
2022/03/07 00:43:53;;;;;;;93.80;89.07;;;1.00;99.90;;;;;;4435462;32;20139;-60
2022/03/07 00:49:13;;;;;;;90.50;86.20;;;1.00;99.90;;;;;;4421098;32;20180;-60
2022/03/07 00:51:41;;;;;;;88.73;84.30;;;1.00;99.90;;;;;;4434859;32;20205;-60
2022/03/07 00:54:10;;;;;;;97.17;92.47;;;0.90;99.90;;;;;;4435720;32;20599;-59
2022/03/07 00:56:41;;;;;;;91.73;87.40;;;0.90;99.90;;;;;;4436188;32;20601;-60
2022/03/07 00:59:23;;;;;;;87.90;83.80;;;0.70;99.90;;;;;;4427189;32;20228;-60
2022/03/07 01:02:00;;;;;;;93.10;88.50;;;0.70;99.90;;;;;;4432008;32;20563;-60
2022/03/07 01:04:50;;;;;;;92.30;88.10;;;0.60;99.90;;;;;;4420777;32;20478;-60
2022/03/07 01:07:36;;;;;;;91.63;87.57;;;0.50;99.90;;;;;;4358064;32;20152;-60
2022/03/07 01:10:06;;;;;;;92.73;88.33;;;0.50;99.90;;;;;;4357686;32;20161;-60
2022/03/07 01:12:40;;;;;;;98.37;93.97;;;0.40;99.90;;;;;;4357883;32;20157;-59
2022/03/07 01:15:15;;;;;;;106.23;101.03;;;0.30;99.90;;;;;;4357870;33;20481;-59
2022/03/07 01:18:02;;;;;;;104.63;99.70;;;0.30;99.90;;;;;;4357414;33;20526;-60
2022/03/07 01:20:37;;;;;;;110.07;104.93;;;0.20;99.90;;;;;;4357813;32;20224;-60
2022/03/07 01:23:18;;;;;;;109.70;104.50;;;0.20;99.90;;;;;;4355399;32;20171;-59
2022/03/07 01:25:56;;;;;;;113.27;108.10;;;0.10;99.90;;;;;;4357397;32;20803;-60
2022/03/07 01:28:38;;;;;;;113.47;108.37;;;0.00;99.90;;;;;;4359296;32;20164;-59
2022/03/07 01:31:08;;;;;;;121.03;115.53;;;0.00;99.90;;;;;;4357634;33;20208;-59
2022/03/07 01:33:40;;;;;;;118.00;112.87;;;-0.10;99.90;;;;;;4357674;33;20189;-60
2022/03/07 01:36:18;;;;;;;116.23;111.03;;;-0.10;99.90;;;;;;4357266;33;20215;-60
2022/03/07 01:38:46;;;;;;;114.53;109.33;;;-0.20;99.90;;;;;;4357550;33;20156;-60
2022/03/07 01:41:27;;;;;;;116.67;111.30;;;-0.20;99.90;;;;;;4357190;33;20552;-60
2022/03/07 01:44:01;;;;;;;113.80;108.63;;;-0.20;99.90;;;;;;4378877;32;20147;-59
2022/03/07 01:46:40;;;;;;;117.07;111.63;;;-0.30;99.90;;;;;;4423250;32;20577;-59
2022/03/07 01:49:13;;;;;;;116.80;111.20;;;-0.30;99.90;;;;;;4435557;32;20249;-60
2022/03/07 01:51:44;;;;;;;125.87;120.10;;;-0.30;99.90;;;;;;4432897;32;20174;-60
2022/03/07 01:54:14;;;;;;;132.37;126.50;;;-0.40;99.90;;;;;;4427217;32;20152;-60
2022/03/07 02:02:29;;;;;;;137.47;131.47;;;-0.30;99.90;;;;;;4430582;32;20179;-61
2022/03/07 02:05:12;;;;;;;139.73;133.47;;;-0.30;99.90;;;;;;4435434;32;20186;-61
2022/03/07 02:08:07;;;;;;;138.67;132.17;;;-0.30;99.90;;;;;;4426030;32;20147;-62
2022/03/07 02:10:46;;;;;;;135.67;129.67;;;-0.30;99.90;;;;;;4424421;32;20147;-61
2022/03/07 02:13:21;;;;;;;135.77;129.50;;;-0.30;99.90;;;;;;4423212;32;20446;-61
2022/03/07 02:16:04;;;;;;;145.40;138.80;;;-0.40;99.90;;;;;;4430279;32;20488;-61
2022/03/07 02:18:34;;;;;;;139.53;132.63;;;-0.40;99.90;;;;;;4438272;32;20200;-61
2022/03/07 02:21:14;;;;;;;140.00;133.97;;;-0.40;99.90;;;;;;4438742;32;20123;-60
2022/03/07 02:23:46;;;;;;;135.83;129.33;;;-0.40;99.90;;;;;;4434759;32;20211;-61
2022/03/07 02:26:37;;;;;;;136.67;130.60;;;-0.50;99.90;;;;;;4437170;32;20585;-60
2022/03/07 02:29:16;;;;;;;132.93;126.77;;;-0.50;99.90;;;;;;4423475;32;20136;-60
2022/03/07 02:31:57;;;;;;;134.03;127.93;;;-0.50;99.90;;;;;;4422325;32;20139;-60
2022/03/07 02:34:35;;;;;;;137.70;131.33;;;-0.50;99.90;;;;;;4425103;32;20255;-61
2022/03/07 02:37:16;;;;;;;133.20;126.93;;;-0.60;99.90;;;;;;4423879;32;20140;-61
2022/03/07 02:39:58;;;;;;;133.90;128.03;;;-0.60;99.90;;;;;;4435800;32;20142;-61
2022/03/07 02:42:33;;;;;;;139.20;132.90;;;-0.70;99.90;;;;;;4424471;32;20211;-62
2022/03/07 02:45:14;;;;;;;143.27;136.53;;;-0.70;99.90;;;;;;4423568;32;20189;-61
2022/03/07 02:47:59;;;;;;;137.33;131.13;;;-0.80;99.90;;;;;;4422654;32;20171;-61
2022/03/07 02:50:43;;;;;;;134.53;128.60;;;-0.80;99.90;;;;;;4422536;32;20190;-60
2022/03/07 02:53:24;;;;;;;138.17;132.00;;;-0.80;99.90;;;;;;4425390;32;20142;-61
2022/03/07 02:56:14;;;;;;;135.27;129.27;;;-0.80;99.90;;;;;;4437821;32;20143;-59
2022/03/07 02:58:46;;;;;;;149.43;142.77;;;-0.80;99.90;;;;;;4437308;32;20467;-59
2022/03/07 03:01:25;;;;;;;158.50;151.37;;;-0.90;99.90;;;;;;4433232;32;20253;-60
2022/03/07 03:04:05;;;;;;;156.60;149.50;;;-0.90;99.90;;;;;;4427098;32;20535;-61
2022/03/07 03:06:41;;;;;;;157.77;150.73;;;-1.00;99.90;;;;;;4422301;32;20144;-61
2022/03/07 03:09:19;;;;;;;164.03;156.77;;;-0.90;99.90;;;;;;4422469;32;20167;-61
2022/03/07 03:12:04;;;;;;;162.30;154.80;;;-1.00;99.90;;;;;;4429266;32;20231;-60
2022/03/07 03:14:34;;;;;;;165.47;158.03;;;-1.00;99.90;;;;;;4437188;32;20563;-60
2022/03/07 03:17:14;;;;;;;172.43;165.03;;;-0.90;99.90;;;;;;4436224;32;20299;-60
2022/03/07 03:19:59;;;;;;;167.13;159.57;;;-0.80;99.90;;;;;;4422624;32;20586;-61
2022/03/07 03:22:39;;;;;;;160.77;153.73;;;-0.60;99.90;;;;;;4426306;32;20216;-60
2022/03/07 03:25:14;;;;;;;161.90;154.60;;;-0.50;99.90;;;;;;4423687;32;20166;-60
2022/03/07 03:28:01;;;;;;;152.40;145.70;;;-0.50;99.90;;;;;;4421979;32;20169;-61
2022/03/07 03:30:36;;;;;;;155.07;148.23;;;-0.50;99.90;;;;;;4434297;32;20162;-61
2022/03/07 03:33:08;;;;;;;156.40;149.50;;;-0.50;99.90;;;;;;4437271;32;20187;-61
2022/03/07 03:35:40;;;;;;;154.00;147.27;;;-0.50;99.90;;;;;;4428925;32;20558;-61
2022/03/07 03:38:30;;;;;;;151.50;144.90;;;-0.60;99.90;;;;;;4422213;32;20219;-59
2022/03/07 03:41:13;;;;;;;147.53;140.97;;;-0.60;99.90;;;;;;4391059;32;20175;-61
2022/03/07 03:43:50;;;;;;;150.80;143.93;;;-0.70;99.90;;;;;;4389706;32;20215;-60
2022/03/07 03:46:23;;;;;;;146.87;140.20;;;-0.80;99.90;;;;;;4391093;32;20488;-61
2022/03/07 03:49:00;;;;;;;153.20;146.17;;;-0.80;99.90;;;;;;4389831;32;20145;-60
2022/03/07 03:51:36;;;;;;;153.30;146.40;;;-0.80;99.90;;;;;;4389865;32;20159;-60
2022/03/07 03:54:16;;;;;;;154.90;148.10;;;-0.80;99.90;;;;;;4390361;32;20219;-60
2022/03/07 03:56:52;;;;;;;154.23;147.10;;;-0.90;99.90;;;;;;4389723;32;20147;-61
2022/03/07 03:59:23;;;;;;;145.80;139.10;;;-0.90;99.90;;;;;;4389182;32;20178;-60
2022/03/07 04:04:59;;;;;;;152.67;145.80;;;-0.90;99.90;;;;;;4390746;32;20159;-61
2022/03/07 04:07:57;;;;;;;156.73;149.77;;;-0.90;99.90;;;;;;4389207;32;20571;-60
2022/03/07 04:10:32;;;;;;;150.67;143.90;;;-0.90;99.90;;;;;;4344847;33;20233;-61
2022/03/07 04:13:09;;;;;;;150.50;143.67;;;-0.90;99.90;;;;;;4344243;33;20165;-60
2022/03/07 04:15:42;;;;;;;148.80;142.20;;;-0.90;99.90;;;;;;4344936;33;20211;-61
2022/03/07 04:18:30;;;;;;;146.50;139.97;;;-1.00;99.90;;;;;;4358587;32;20497;-61
2022/03/07 04:21:15;;;;;;;143.63;137.23;;;-1.00;99.90;;;;;;4375123;32;20191;-59
2022/03/07 04:23:51;;;;;;;155.63;148.87;;;-1.10;99.90;;;;;;4374024;32;20207;-59
2022/03/07 04:26:23;;;;;;;150.87;143.67;;;-1.10;99.90;;;;;;4374252;32;20140;-60
2022/03/07 04:29:05;;;;;;;157.23;150.23;;;-1.10;99.90;;;;;;4376869;32;20164;-59
2022/03/07 04:32:01;;;;;;;154.13;147.13;;;-1.20;99.90;;;;;;4375665;32;20644;-60
2022/03/07 04:34:32;;;;;;;151.47;144.50;;;-1.20;99.90;;;;;;4329462;33;20212;-61
2022/03/07 04:37:10;;;;;;;146.73;140.00;;;-1.20;99.90;;;;;;4329041;33;20158;-59
2022/03/07 04:40:01;;;;;;;147.57;140.47;;;-1.30;99.90;;;;;;4328675;33;20178;-59
2022/03/07 04:42:45;;;;;;;152.23;145.57;;;-1.30;99.90;;;;;;4328308;33;20188;-58
2022/03/07 04:45:15;;;;;;;154.23;147.30;;;-1.40;99.90;;;;;;4328802;33;20566;-59
2022/03/07 04:48:10;;;;;;;158.83;151.23;;;-1.40;99.90;;;;;;4351425;32;20161;-59
2022/03/07 04:50:42;;;;;;;152.27;145.30;;;-1.40;99.90;;;;;;4285573;33;20193;-59
2022/03/07 04:53:27;;;;;;;156.20;149.17;;;-1.40;99.90;;;;;;4289011;33;20192;-58
2022/03/07 04:55:58;;;;;;;149.97;143.03;;;-1.40;99.90;;;;;;4299984;33;20610;-58
2022/03/07 04:58:27;;;;;;;150.10;143.17;;;-1.40;99.90;;;;;;4298923;33;20150;-58
2022/03/07 05:00:59;;;;;;;152.73;145.67;;;-1.50;99.90;;;;;;4284931;33;20146;-57
2022/03/07 05:03:40;;;;;;;164.80;157.63;;;-1.50;99.90;;;;;;4297592;33;20237;-58
2022/03/07 05:06:20;;;;;;;155.67;148.60;;;-1.50;99.90;;;;;;4299080;33;20207;-58
2022/03/07 05:09:13;;;;;;;159.97;152.67;;;-1.50;99.90;;;;;;4295036;33;20214;-60
2022/03/07 05:12:02;;;;;;;156.13;148.93;;;-1.50;99.90;;;;;;4284293;33;20221;-59
2022/03/07 05:14:40;;;;;;;157.53;150.53;;;-1.60;99.90;;;;;;4314753;33;20170;-60
2022/03/07 05:17:25;;;;;;;151.87;144.90;;;-1.60;99.90;;;;;;4315010;33;20196;-61
2022/03/07 05:19:53;;;;;;;155.83;148.60;;;-1.60;99.90;;;;;;4314487;33;20232;-59
2022/03/07 05:22:23;;;;;;;163.60;155.90;;;-1.60;99.90;;;;;;4313425;33;20170;-60
2022/03/07 05:24:55;;;;;;;162.43;155.13;;;-1.60;99.90;;;;;;4307001;33;20150;-60
2022/03/07 05:27:35;;;;;;;171.37;163.77;;;-1.60;99.90;;;;;;4332201;32;20442;-60
2022/03/07 05:33:04;;;;;;;161.00;153.27;;;-1.50;99.90;;;;;;4373359;32;20187;-59
2022/03/07 05:35:48;;;;;;;159.80;152.70;;;-1.50;99.90;;;;;;4372948;32;20183;-59
2022/03/07 05:38:27;;;;;;;170.97;163.07;;;-1.50;99.90;;;;;;4367372;32;20672;-61
2022/03/07 05:41:05;;;;;;;165.83;158.00;;;-1.40;99.90;;;;;;4368154;32;20153;-60
2022/03/07 05:43:43;;;;;;;176.30;168.03;;;-1.40;99.90;;;;;;4376130;32;20522;-61
2022/03/07 05:46:14;;;;;;;172.70;165.03;;;-1.40;99.90;;;;;;4375529;32;20174;-61
2022/03/07 05:48:43;;;;;;;170.37;162.37;;;-1.40;99.90;;;;;;4394508;32;20476;-61
2022/03/07 05:51:20;;;;;;;178.40;170.23;;;-1.40;99.90;;;;;;4426117;32;20148;-60
2022/03/07 05:53:52;;;;;;;171.03;163.27;;;-1.40;99.90;;;;;;4438119;32;20182;-61
2022/03/07 05:56:25;;;;;;;168.83;160.63;;;-1.40;99.90;;;;;;4438732;32;20162;-61
2022/03/07 05:59:10;;;;;;;175.63;167.10;;;-1.40;99.90;;;;;;4425844;32;20147;-61
2022/03/07 06:01:49;;;;;;;165.57;157.83;;;-1.30;99.90;;;;;;4428716;32;20170;-60
2022/03/07 06:04:27;;;;;;;171.80;163.83;;;-1.30;99.90;;;;;;4436676;32;20154;-60
2022/03/07 06:07:02;;;;;;;172.67;164.87;;;-1.30;99.90;;;;;;4423278;32;20479;-58
2022/03/07 06:09:32;;;;;;;173.00;164.57;;;-1.30;99.90;;;;;;4423414;32;20300;-60
2022/03/07 06:12:05;;;;;;;166.43;158.83;;;-1.30;99.90;;;;;;4422673;32;20147;-59
2022/03/07 06:14:35;;;;;;;174.50;166.40;;;-1.30;99.90;;;;;;4422572;32;20182;-60
2022/03/07 06:17:05;;;;;;;175.30;167.43;;;-1.30;99.90;;;;;;4431142;32;20585;-60
2022/03/07 06:19:35;;;;;;;168.07;160.37;;;-1.30;99.90;;;;;;4429235;32;20219;-59
2022/03/07 06:22:12;;;;;;;176.90;168.97;;;-1.30;99.90;;;;;;4429548;32;20156;-61
2022/03/07 06:24:46;;;;;;;166.47;158.83;;;-1.30;99.90;;;;;;4428453;32;20146;-62
2022/03/07 06:27:31;;;;;;;170.27;162.53;;;-1.30;99.90;;;;;;4431195;32;20143;-60
2022/03/07 06:32:50;;;;;;;171.10;163.50;;;-1.20;99.90;;;;;;4430016;32;20180;-61
2022/03/07 06:35:41;;;;;;;168.27;160.67;;;-1.20;99.90;;;;;;4428983;32;20202;-61
2022/03/07 06:38:20;;;;;;;170.47;162.53;;;-1.20;99.90;;;;;;4427889;32;20152;-61
2022/03/07 06:40:50;;;;;;;163.70;156.20;;;-1.20;99.90;;;;;;4429826;32;20196;-61
2022/03/07 06:43:18;;;;;;;166.40;158.93;;;-1.10;99.90;;;;;;4427472;32;20804;-60
2022/03/07 06:45:52;;;;;;;162.67;155.03;;;-1.10;99.90;;;;;;4426875;32;20243;-61
2022/03/07 06:48:24;;;;;;;171.33;163.47;;;-1.10;99.90;;;;;;4421950;32;20503;-62
2022/03/07 06:50:53;;;;;;;173.47;164.50;;;-1.00;99.90;;;;;;4424594;32;20148;-61
2022/03/07 06:53:44;;;;;;;175.40;167.47;;;-0.90;99.90;;;;;;4421935;32;20148;-61
2022/03/07 06:56:36;;;;;;;165.57;158.00;;;-0.90;99.90;;;;;;4425542;32;20170;-61
2022/03/07 06:59:25;;;;;;;161.63;154.00;;;-0.80;99.90;;;;;;4428262;32;20552;-61
2022/03/07 07:01:57;;;;;;;164.97;157.07;;;-0.70;99.90;;;;;;4427438;32;20630;-61
2022/03/07 07:04:35;;;;;;;169.30;160.87;;;-0.60;99.90;;;;;;4430806;32;20163;-61
2022/03/07 07:10:01;;;;;;;168.13;160.13;;;-0.50;99.90;;;;;;4421643;32;20246;-61
2022/03/07 07:12:50;;;;;;;169.00;161.27;;;-0.40;99.90;;;;;;4426660;32;20219;-61
2022/03/07 07:15:21;;;;;;;163.83;156.23;;;-0.30;99.90;;;;;;4429037;32;20147;-62
2022/03/07 07:21:06;;;;;;;154.40;147.17;;;-0.20;99.90;;;;;;4418616;32;20252;-60
2022/03/07 07:23:58;;;;;;;162.30;154.60;;;-0.10;99.90;;;;;;4423311;32;20155;-60
2022/03/07 07:26:32;;;;;;;162.97;154.77;;;0.00;99.90;;;;;;4354784;32;20157;-59
2022/03/07 07:29:16;;;;;;;161.93;153.87;;;0.00;99.90;;;;;;4354456;32;20186;-60
2022/03/07 07:31:51;;;;;;;168.53;160.20;;;0.10;99.90;;;;;;4357236;32;20309;-61
2022/03/07 07:38:02;;;;;;;156.10;148.60;;;0.40;99.90;;;;;;4253687;33;20249;-59
2022/03/07 07:40:42;;;;;;;163.00;154.60;;;0.50;99.90;;;;;;4251344;33;20163;-60
2022/03/07 07:43:20;;;;;;;149.50;142.07;;;0.60;99.90;;;;;;4249215;33;20627;-60
2022/03/07 07:45:50;;;;;;;157.27;148.97;;;0.70;99.90;;;;;;4253143;33;20231;-60
2022/03/07 07:48:41;;;;;;;162.67;154.97;;;0.80;99.90;;;;;;4254361;33;20155;-61
2022/03/07 07:51:08;;;;;;;152.80;145.63;;;0.90;99.90;;;;;;4251029;33;20702;-60
2022/03/07 07:53:39;;;;;;;157.13;149.40;;;1.00;99.90;;;;;;4250785;33;20159;-60
2022/03/07 07:56:15;;;;;;;153.17;145.40;;;1.10;99.90;;;;;;4247799;33;20219;-59
2022/03/07 07:58:44;;;;;;;143.37;134.93;;;1.30;99.90;;;;;;4250249;33;20160;-61
2022/03/07 08:01:13;;;;;;;146.20;138.83;;;1.40;99.90;;;;;;4247556;33;20517;-60
2022/03/07 08:03:46;;;;;;;142.23;135.30;;;1.50;99.90;;;;;;4280002;33;20181;-61
2022/03/07 08:06:19;;;;;;;145.67;139.00;;;1.60;99.90;;;;;;4308168;33;20474;-61
2022/03/07 08:08:51;;;;;;;138.10;131.37;;;1.70;99.90;;;;;;4349575;32;20266;-60
2022/03/07 08:11:23;;;;;;;137.90;131.27;;;1.80;99.90;;;;;;4403042;32;20147;-60
2022/03/07 08:13:59;;;;;;;136.37;129.63;;;1.90;99.90;;;;;;4429042;32;20151;-59
2022/03/07 08:16:36;;;;;;;134.67;128.13;;;2.10;99.90;;;;;;4425591;32;20151;-61
2022/03/07 08:22:25;;;;;;;123.20;117.03;;;2.40;99.90;;;;;;4380693;32;20175;-60
2022/03/07 08:24:55;;;;;;;127.03;120.37;;;2.50;99.90;;;;;;4386441;32;20213;-60
2022/03/07 08:27:27;;;;;;;116.57;110.57;;;2.70;99.90;;;;;;4379132;32;20165;-61
2022/03/07 08:30:06;;;;;;;124.67;118.77;;;2.80;99.90;;;;;;4383163;32;20217;-60
2022/03/07 08:32:49;;;;;;;113.77;108.10;;;3.10;99.90;;;;;;4385593;32;20205;-59
2022/03/07 08:35:31;;;;;;;108.83;103.73;;;3.10;99.90;;;;;;4382846;32;20161;-60
2022/03/07 08:38:08;;;;;;;107.27;102.17;;;3.30;99.90;;;;;;4379494;32;20161;-60
2022/03/07 08:43:36;;;;;;;108.50;103.03;;;3.50;99.90;;;;;;4382972;32;20183;-60
2022/03/07 08:46:19;;;;;;;108.93;102.90;;;3.60;99.90;;;;;;4379645;32;20158;-60
2022/03/07 08:48:53;;;;;;;101.13;96.23;;;3.70;99.90;;;;;;4382662;32;20733;-60
2022/03/07 08:51:20;;;;;;;102.20;97.17;;;3.80;99.90;;;;;;4380367;32;20165;-60
2022/03/07 08:53:57;;;;;;;106.63;101.63;;;3.90;99.90;;;;;;4415844;32;20452;-60
2022/03/07 08:56:30;;;;;;;107.40;102.17;;;4.00;99.90;;;;;;4424529;32;20185;-60
2022/03/07 09:01:59;;;;;;;97.30;92.57;;;4.20;99.90;;;;;;4423991;32;20179;-60
2022/03/07 09:04:35;;;;;;;96.33;91.87;;;4.30;99.90;;;;;;4424691;32;20590;-60
2022/03/07 09:07:01;;;;;;;92.10;87.63;;;4.40;99.90;;;;;;4425737;32;20168;-61
2022/03/07 09:09:36;;;;;;;96.23;91.43;;;4.40;99.90;;;;;;4426945;32;20151;-61
2022/03/07 09:12:05;;;;;;;92.33;87.83;;;4.60;99.90;;;;;;4427084;32;20432;-60
2022/03/07 09:14:34;;;;;;;93.57;89.07;;;4.70;99.90;;;;;;4429215;32;20142;-60
2022/03/07 09:17:07;;;;;;;99.27;94.33;;;4.70;99.90;;;;;;4427824;32;20159;-61
2022/03/07 09:19:34;;;;;;;90.20;85.90;;;4.80;99.90;;;;;;4426921;32;20174;-59
2022/03/07 09:22:03;;;;;;;89.80;85.43;;;5.00;99.90;;;;;;4425235;32;20175;-59
2022/03/07 09:24:39;;;;;;;95.13;90.50;;;4.90;99.90;;;;;;4429856;32;20190;-59
2022/03/07 09:27:09;;;;;;;87.63;83.17;;;5.00;99.90;;;;;;4427949;32;20444;-59
2022/03/07 09:29:38;;;;;;;90.20;85.87;;;5.10;99.90;;;;;;4426092;32;20148;-60
2022/03/07 09:32:08;;;;;;;90.97;86.43;;;5.10;99.90;;;;;;4428902;32;20503;-60
2022/03/07 09:34:39;;;;;;;89.63;85.00;;;5.20;99.90;;;;;;4426408;32;20157;-59
2022/03/07 09:42:40;;;;;;;87.17;82.90;;;5.30;99.60;;;;;;4424034;32;20213;-61
2022/03/07 09:45:13;;;;;;;89.60;85.23;;;5.30;99.90;;;;;;4428293;32;20193;-60
2022/03/07 09:47:57;;;;;;;87.93;83.73;;;5.50;99.90;;;;;;4426311;32;20143;-58
2022/03/07 09:50:28;;;;;;;90.10;85.80;;;5.60;99.40;;;;;;4426102;32;20151;-59
2022/03/07 09:52:55;;;;;;;87.37;83.07;;;5.60;99.20;;;;;;4426678;32;20144;-59
2022/03/07 09:55:30;;;;;;;92.30;87.90;;;5.60;99.10;;;;;;4428500;32;20146;-58
2022/03/07 09:58:03;;;;;;;87.60;83.47;;;5.60;99.10;;;;;;4426986;32;20220;-58
2022/03/07 10:00:41;;;;;;;84.70;80.43;;;5.70;98.80;;;;;;4426396;32;20229;-59
2022/03/07 10:03:14;;;;;;;82.83;78.93;;;5.60;98.20;;;;;;4425272;32;20210;-60
2022/03/07 10:05:53;;;;;;;87.63;83.53;;;5.70;98.50;;;;;;4425431;32;20605;-59
2022/03/07 10:08:31;;;;;;;88.97;84.47;;;5.70;98.80;;;;;;4423118;32;20185;-59
2022/03/07 10:11:14;;;;;;;84.83;80.93;;;5.90;98.50;;;;;;4426997;32;20640;-58
2022/03/07 10:13:59;;;;;;;86.13;82.17;;;5.90;98.30;;;;;;4425106;32;20491;-59
2022/03/07 10:16:38;;;;;;;83.03;78.63;;;5.90;97.90;;;;;;4425167;32;20200;-57
2022/03/07 10:19:17;;;;;;;85.13;81.07;;;5.90;97.90;;;;;;4427773;32;20163;-60
2022/03/07 10:25:00;;;;;;;85.07;80.90;;;6.00;97.80;;;;;;4364773;32;20172;-58
2022/03/07 10:27:54;;;;;;;79.47;75.47;;;6.00;97.90;;;;;;4363291;32;20649;-58
2022/03/07 10:30:43;;;;;;;80.70;76.57;;;6.10;98.40;;;;;;4366555;32;20175;-57
2022/03/07 10:33:14;;;;;;;80.50;76.40;;;6.20;98.00;;;;;;4364104;32;20220;-57
2022/03/07 10:35:50;;;;;;;84.70;80.57;;;6.10;98.00;;;;;;4367352;32;20521;-57
2022/03/07 10:38:29;;;;;;;76.07;72.33;;;6.20;97.90;;;;;;4366167;32;20521;-59
2022/03/07 10:41:20;;;;;;;80.27;76.23;;;6.20;97.70;;;;;;4368065;32;20148;-60
2022/03/07 10:43:55;;;;;;;77.57;73.53;;;6.20;97.80;;;;;;4367843;32;20164;-59
2022/03/07 10:46:28;;;;;;;74.20;70.40;;;6.20;97.80;;;;;;4366090;32;20164;-59
2022/03/07 10:51:56;;;;;;;74.93;70.97;;;6.30;97.40;;;;;;4424711;32;20187;-59
2022/03/07 10:54:34;;;;;;;74.53;70.67;;;6.40;97.60;;;;;;4427619;32;20155;-59
2022/03/07 10:57:04;;;;;;;74.50;70.70;;;6.40;97.60;;;;;;4428743;32;20202;-57
2022/03/07 10:59:33;;;;;;;72.53;68.80;;;6.50;97.10;;;;;;4430632;32;20151;-58
2022/03/07 11:02:03;;;;;;;67.60;64.30;;;6.50;97.10;;;;;;4429366;32;20152;-58
2022/03/07 11:04:39;;;;;;;69.27;65.87;;;6.60;96.90;;;;;;4426723;32;20241;-59
2022/03/07 11:07:18;;;;;;;63.17;60.00;;;6.60;96.40;;;;;;4429855;32;20177;-59
2022/03/07 11:09:52;;;;;;;63.90;60.80;;;6.50;95.80;;;;;;4427943;32;20197;-59
2022/03/07 11:12:20;;;;;;;67.50;64.20;;;6.40;96.20;;;;;;4427165;32;20193;-59
2022/03/07 11:14:50;;;;;;;67.60;64.23;;;6.60;96.50;;;;;;4429415;32;20567;-60
2022/03/07 11:17:21;;;;;;;67.87;64.67;;;6.60;95.90;;;;;;4428301;32;20163;-58
2022/03/07 11:20:04;;;;;;;67.63;64.17;;;6.60;95.80;;;;;;4430411;32;20240;-59
2022/03/07 11:22:47;;;;;;;67.30;64.00;;;6.60;95.90;;;;;;4426744;32;20164;-59
2022/03/07 11:25:25;;;;;;;65.87;62.60;;;6.60;95.90;;;;;;4428432;32;20148;-59
2022/03/07 11:28:14;;;;;;;;;;;;;;;;;;;;;
2022/03/07 11:30:55;;;;;;;67.17;63.67;;;6.70;95.70;;;;;;4428279;32;20174;-61
2022/03/07 11:33:41;;;;;;;65.07;61.87;;;6.70;96.10;;;;;;4427106;32;20170;-61
2022/03/07 11:36:18;;;;;;;64.70;61.33;;;6.80;96.00;;;;;;4428074;32;20556;-61
2022/03/07 11:41:49;;;;;;;63.57;60.47;;;6.80;95.80;;;;;;4421552;32;20206;-61
2022/03/07 11:44:32;;;;;;;62.33;59.33;;;6.80;96.00;;;;;;4426937;32;20206;-61
2022/03/07 11:47:08;;;;;;;64.03;60.80;;;6.80;95.50;;;;;;4423473;32;20214;-61
2022/03/07 11:50:01;;;;;;;61.43;58.30;;;6.90;95.70;;;;;;4427391;32;20147;-60
2022/03/07 11:52:39;;;;;;;63.13;59.93;;;6.90;94.90;;;;;;4427590;32;20254;-60
2022/03/07 11:55:19;;;;;;;59.63;56.67;;;7.00;94.60;;;;;;4427244;32;20164;-61
2022/03/07 11:57:53;;;;;;;54.50;51.80;;;7.00;94.60;;;;;;4426853;32;20192;-61
2022/03/07 12:00:32;;;;;;;54.93;52.30;;;6.90;94.50;;;;;;4425597;32;20146;-61
2022/03/07 12:03:15;;;;;;;54.33;51.63;;;7.00;94.70;;;;;;4426437;32;20632;-61
2022/03/07 12:05:44;;;;;;;54.37;51.67;;;7.00;94.60;;;;;;4426631;32;20223;-60
2022/03/07 12:08:17;;;;;;;51.13;48.67;;;7.00;94.40;;;;;;4427794;32;20203;-61
2022/03/07 12:11:02;;;;;;;54.10;51.30;;;7.00;94.40;;;;;;4429366;32;20158;-61
2022/03/07 12:16:41;;;;;;;49.63;47.13;;;7.00;94.80;;;;;;4424126;32;20629;-61
2022/03/07 12:19:22;;;;;;;51.97;49.37;;;7.00;94.70;;;;;;4348236;32;20161;-61
2022/03/07 12:24:43;;;;;;;52.40;49.60;;;7.00;94.10;;;;;;4343689;33;20237;-60
2022/03/07 12:27:20;;;;;;;51.83;49.23;;;7.10;94.80;;;;;;4344340;33;20173;-61
2022/03/07 12:30:04;;;;;;;51.77;49.07;;;7.20;94.40;;;;;;4354888;33;20224;-61
2022/03/07 12:32:38;;;;;;;47.70;45.10;;;7.30;94.40;;;;;;4359859;32;20152;-61
2022/03/07 12:35:08;;;;;;;52.97;50.13;;;7.30;94.60;;;;;;4358983;33;20490;-61
2022/03/07 12:37:40;;;;;;;49.97;47.47;;;7.30;94.70;;;;;;4359016;33;20180;-61
2022/03/07 12:40:16;;;;;;;51.10;48.47;;;7.30;94.70;;;;;;4358565;32;20576;-60
2022/03/07 12:42:59;;;;;;;47.80;44.93;;;7.30;94.20;;;;;;4352180;33;20578;-61
2022/03/07 12:45:33;;;;;;;50.43;47.93;;;7.40;94.40;;;;;;4358951;32;20160;-61
2022/03/07 12:48:10;;;;;;;47.87;45.13;;;7.30;94.30;;;;;;4358873;33;20152;-61
2022/03/07 12:54:13;;;;;;;49.50;46.83;;;7.30;94.50;;;;;;4328998;33;20161;-61
2022/03/07 12:57:00;;;;;;;44.60;42.20;;;7.40;94.80;;;;;;4371147;32;20168;-61
2022/03/07 12:59:34;;;;;;;46.60;43.93;;;7.50;94.60;;;;;;4388614;32;20573;-61
2022/03/07 13:02:11;;;;;;;47.83;45.47;;;7.40;94.50;;;;;;4388749;32;20576;-61
2022/03/07 13:05:10;;;;;;;47.30;44.70;;;7.40;94.60;;;;;;4388307;32;20160;-61
2022/03/07 13:07:48;;;;;;;47.30;44.63;;;7.30;94.90;;;;;;4388491;32;20164;-60
2022/03/07 13:10:27;;;;;;;47.60;44.57;;;7.40;95.00;;;;;;4388343;32;20526;-61
2022/03/07 13:15:51;;;;;;;50.30;47.43;;;7.60;95.10;;;;;;4385019;32;20180;-61
2022/03/07 13:18:24;;;;;;;47.97;45.43;;;7.60;95.10;;;;;;4388189;32;20160;-61
2022/03/07 13:20:52;;;;;;;48.23;45.63;;;7.50;95.30;;;;;;4388352;32;20731;-60
2022/03/07 13:23:19;;;;;;;46.60;44.00;;;7.50;95.10;;;;;;4387301;32;20184;-60
2022/03/07 13:25:54;;;;;;;45.17;42.33;;;7.50;95.00;;;;;;4389179;32;20209;-60
2022/03/07 13:28:39;;;;;;;44.50;42.00;;;7.40;94.50;;;;;;4388516;32;20170;-61
2022/03/07 13:31:10;;;;;;;47.17;44.50;;;7.30;94.60;;;;;;4416386;32;20166;-62
2022/03/07 13:33:40;;;;;;;44.00;41.30;;;7.20;94.90;;;;;;4435929;32;20159;-60
2022/03/07 13:36:20;;;;;;;45.90;43.43;;;7.20;95.20;;;;;;4436830;32;20155;-61
2022/03/07 13:38:57;;;;;;;48.57;45.77;;;7.20;95.30;;;;;;4436023;32;20163;-61
2022/03/07 13:41:33;;;;;;;45.13;42.63;;;7.30;95.60;;;;;;4435879;32;20174;-61
2022/03/07 13:44:22;;;;;;;44.53;42.17;;;7.40;95.00;;;;;;4435999;32;20175;-61
2022/03/07 13:47:15;;;;;;;45.57;43.17;;;7.40;94.90;;;;;;4436830;32;20241;-61
2022/03/07 13:49:55;;;;;;;43.50;40.90;;;7.40;94.90;;;;;;4435740;32;20815;-61
2022/03/07 13:52:33;;;;;;;42.83;40.53;;;7.40;95.10;;;;;;4436420;32;20573;-61
2022/03/07 13:55:05;;;;;;;40.97;38.77;;;7.50;95.30;;;;;;4436312;32;20226;-61
2022/03/07 13:58:04;;;;;;;46.27;43.50;;;7.50;95.20;;;;;;4435908;32;20482;-61
2022/03/07 14:00:37;;;;;;;42.87;40.53;;;7.50;95.40;;;;;;4435868;32;20579;-60
2022/03/07 14:03:20;;;;;;;41.53;39.23;;;7.50;95.10;;;;;;4437437;32;20205;-61
2022/03/07 14:06:01;;;;;;;48.77;46.17;;;7.50;95.20;;;;;;4438444;32;20155;-61
2022/03/07 14:08:51;;;;;;;44.80;42.13;;;7.50;95.20;;;;;;4439007;32;20192;-61
2022/03/07 14:11:25;;;;;;;41.00;38.70;;;7.50;95.00;;;;;;4438731;32;20159;-61
2022/03/07 14:14:16;;;;;;;44.03;41.60;;;7.50;95.10;;;;;;4439354;32;20517;-61